Latest Weather Observations for Lord Howe Island

IDN60801

Issued at 10:03 pm EST Thursday 30 June 2016 (issued every 30 minutes, with the page automatically refreshed every 10 minutes)

About weather observations | Map of weather stations | Latest weather observations for NSW | Other Formats
Station Details ID: 200839 Name: LORD HOWE ISLAND AERO Lat: -31.54 Lon: 159.08 Height: 5.0 m
Data from the previous 72 hours. | See also: Recent months at Lord Howe Island
Date/Time
EST
Temp
°C
App
Temp
°C
Dew
Point
°C
Rel
Hum
%
Delta-T
°C
Wind Press
QNH
hPa
Press
MSL
hPa
Rain since
9am
mm
Dir  Spd
km/h
Gust
km/h
Spd
kts
Gust
kts
30/10:00pm 15.1 12.7 8.8 66 3.2 N 11 17 6 9 1021.6 - 0.0
30/09:30pm 13.5 11.5 8.7 73 2.4 N 9 13 5 7 1021.7 - 0.0
30/09:00pm 12.1 10.5 8.7 80 1.7 N 7 13 4 7 1021.8 - 0.0
30/08:30pm 11.4 10.2 9.4 87 1.0 N 6 9 3 5 1021.8 1021.8 0.0
30/08:00pm 11.1 11.1 9.7 91 0.7 CALM 0 0 0 0 1021.7 - 0.0
30/07:30pm 11.2 10.8 9.8 91 0.7 NE 2 6 1 3 1021.7 - 0.0
30/07:00pm 11.1 11.1 9.7 91 0.7 CALM 0 0 0 0 1021.6 - 0.0
30/06:30pm 11.0 11.1 10.0 93 0.5 CALM 0 0 0 0 1021.4 - 0.0
30/06:00pm 11.4 11.5 10.0 91 0.7 CALM 0 0 0 0 1021.2 - 0.0
30/05:30pm 11.8 11.9 10.0 89 0.9 CALM 0 0 0 0 1021.1 1021.1 0.0
30/05:00pm 12.5 12.6 10.0 85 1.3 CALM 0 0 0 0 1020.9 - 0.0
30/04:30pm 14.6 15.0 11.4 81 1.7 CALM 0 0 0 0 1020.6 - 0.0
30/04:00pm 16.8 16.4 11.2 69 3.0 NE 4 6 2 3 1020.7 - 0.0
30/03:30pm 18.8 18.5 10.2 57 4.6 ENE 2 7 1 4 1020.8 - 0.0
30/03:00pm 19.7 19.7 9.7 52 5.3 CALM 0 0 0 0 1020.9 - 0.0
30/02:30pm 18.8 17.3 9.0 53 5.1 WSW 7 9 4 5 1021.0 1021.0 0.0
30/02:00pm 19.0 17.3 9.7 54 4.9 WSW 9 11 5 6 1021.2 - 0.0
30/01:30pm 17.9 16.1 9.5 58 4.4 WSW 9 11 5 6 1021.2 - 0.0
30/01:00pm 18.5 16.6 9.1 54 4.9 WSW 9 13 5 7 1021.3 - 0.0
30/12:30pm 18.8 17.8 8.8 52 5.2 NW 4 9 2 5 1021.5 - 0.0
30/12:00pm 18.0 16.6 9.6 58 4.4 WSW 7 11 4 6 1021.9 - 0.0
30/11:30am 19.1 17.7 9.4 53 5.1 WSW 7 11 4 6 1022.2 1022.2 0.0
30/11:00am 19.5 18.7 9.7 53 5.2 W 4 9 2 5 1022.7 - 0.0
30/10:30am 18.9 17.0 9.1 53 5.1 WSW 9 11 5 6 1023.0 - 0.0
30/10:00am 18.6 16.7 9.0 53 5.0 SW 9 13 5 7 1023.2 - 0.0
30/09:30am 19.0 17.8 9.5 54 5.0 SSE 6 13 3 7 1023.4 - 0.0
30/09:00am 18.7 17.2 9.1 53 5.0 E 7 15 4 8 1023.2 - 0.0
30/08:30am 18.0 17.2 9.8 58 4.3 SSW 4 7 2 4 1023.3 1023.3 0.6
30/08:00am 17.3 17.5 10.5 64 3.6 CALM 0 6 0 3 1023.3 - 0.6
30/07:30am 15.2 14.1 10.0 71 2.7 SSE 6 7 3 4 1023.2 - 0.6
30/07:00am 14.9 13.2 8.5 65 3.2 S 7 9 4 5 1023.1 - 0.6
30/06:30am 13.1 11.5 8.0 71 2.5 SSW 6 11 3 6 1022.9 - 0.6
30/06:00am 11.9 10.8 6.8 71 2.4 SE 2 7 1 4 1022.6 - 0.6
30/05:30am 10.8 9.8 7.2 78 1.7 SSE 2 9 1 5 1022.4 1022.4 0.6
30/05:00am 11.1 9.5 7.8 80 1.6 SE 6 6 3 3 1022.1 - 0.6
30/04:30am 10.7 10.1 7.6 81 1.5 CALM 0 0 0 0 1022.0 - 0.6
30/04:00am 13.1 11.5 8.0 71 2.5 SE 6 11 3 6 1021.9 - 0.6
30/03:30am 14.2 13.0 8.2 67 3.0 SSW 4 9 2 5 1022.0 - 0.6
30/03:00am 15.8 13.5 7.5 58 4.1 S 9 17 5 9 1022.1 - 0.6
30/02:30am 15.9 13.3 7.9 59 4.0 SSW 11 19 6 10 1022.1 1022.1 0.6
30/02:00am 16.4 13.3 7.3 55 4.5 SSW 13 20 7 11 1022.1 - 0.6
30/01:30am 16.8 14.2 7.6 54 4.6 SSW 11 22 6 12 1022.3 - 0.6
30/01:00am 16.0 14.7 9.2 64 3.5 SSW 6 17 3 9 1022.6 - 0.6
30/12:30am 15.5 14.8 9.9 69 2.9 S 4 13 2 7 1022.7 - 0.6
30/12:00am 15.7 14.3 9.5 66 3.2 SSE 7 13 4 7 1022.7 - 0.6
 
Date/Time
EST
Temp
°C
App
Temp
°C
Dew
Point
°C
Rel
Hum
%
Delta-T
°C
Wind Press
QNH
hPa
Press
MSL
hPa
Rain since
9am
mm
Dir  Spd
km/h
Gust
km/h
Spd
kts
Gust
kts
29/11:30pm 16.4 14.0 8.5 59 4.0 SE 11 17 6 9 1022.8 1022.8 0.6
29/11:00pm 15.7 14.4 9.9 68 3.0 S 7 11 4 6 1023.1 - 0.6
29/10:30pm 15.4 14.3 10.0 70 2.8 SSE 6 9 3 5 1023.1 - 0.6
29/10:00pm 15.2 14.4 11.0 76 2.2 ESE 6 11 3 6 1023.2 - 0.6
29/09:30pm 15.7 14.3 10.8 72 2.6 SSE 9 22 5 12 1023.1 - 0.6
29/09:00pm 14.8 13.9 11.4 80 1.8 WNW 7 13 4 7 1023.0 - 0.6
29/08:30pm 16.1 14.2 9.1 63 3.6 SSW 9 15 5 8 1023.0 1023.0 0.0
29/08:00pm 16.1 13.5 9.5 65 3.4 SSE 13 22 7 12 1023.2 - 0.0
29/07:30pm 17.0 14.1 8.1 55 4.5 SSW 13 22 7 12 1023.0 - 0.0
29/07:00pm 16.9 13.6 8.0 55 4.5 SW 15 28 8 15 1022.8 - 0.0
29/06:30pm 16.7 13.7 7.5 54 4.6 SSW 13 26 7 14 1022.6 - 0.0
29/06:00pm 16.6 13.6 9.2 61 3.8 SW 15 24 8 13 1022.2 - 0.0
29/05:30pm 16.5 13.3 9.8 64 3.5 SSW 17 33 9 18 1021.9 1021.9 0.0
29/05:00pm 16.8 14.2 10.6 67 3.3 SSW 15 30 8 16 1021.6 - 0.0
29/04:30pm 17.1 13.8 8.0 55 4.6 SSW 15 32 8 17 1021.3 - 0.0
29/04:00pm 17.1 13.1 6.8 50 5.1 SSW 17 33 9 18 1020.9 - 0.0
29/03:30pm 17.6 13.3 7.2 50 5.2 SSW 19 32 10 17 1020.9 - 0.0
29/03:00pm 18.0 14.0 8.2 52 5.0 SSW 19 41 10 22 1020.8 - 0.0
29/02:30pm 18.3 14.4 7.1 48 5.6 SW 17 37 9 20 1020.6 1020.6 0.0
29/02:00pm 18.4 15.2 8.5 52 5.1 SSW 15 24 8 13 1020.4 - 0.0
29/01:30pm 18.4 14.3 8.0 50 5.3 SSW 19 35 10 19 1020.2 - 0.0
29/01:00pm 18.2 13.9 7.7 50 5.3 SSW 20 33 11 18 1020.3 - 0.0
29/12:30pm 18.1 14.1 8.3 52 5.0 SSW 19 41 10 22 1020.2 - 0.0
29/12:00pm 18.4 13.9 7.0 47 5.7 SW 20 39 11 21 1020.6 - 0.0
29/11:30am 18.6 14.4 7.5 48 5.6 SW 19 39 10 21 1020.7 1020.7 0.0
29/11:00am 18.0 13.8 8.2 52 5.0 SSW 20 35 11 19 1021.2 - 0.0
29/10:30am 18.0 14.4 8.2 52 5.0 SSW 17 43 9 23 1021.5 - 0.0
29/10:00am 17.5 12.7 7.5 52 5.0 SSW 22 35 12 19 1021.4 - 0.0
29/09:30am 18.0 13.6 7.2 49 5.4 SSW 20 48 11 26 1021.5 - 0.0
29/09:00am 17.3 12.2 7.5 52 4.9 SW 24 41 13 22 1021.4 - 0.0
29/08:30am 17.7 13.6 8.8 56 4.6 SW 20 35 11 19 1020.9 1020.9 9.4
29/08:00am 17.1 13.6 8.9 58 4.2 SSW 17 33 9 18 1020.6 - 9.4
29/07:30am 16.5 11.8 9.1 61 3.8 SSW 24 54 13 29 1020.5 - 9.4
29/07:24am 16.2 12.4 9.9 66 3.3 SSW 20 44 11 24 1020.4 - 9.4
29/07:04am 15.1 11.2 12.1 82 1.6 SW 24 43 13 23 1020.8 - 8.4
29/07:00am 16.5 12.5 10.4 67 3.2 SW 22 48 12 26 1020.2 - 6.4
29/06:30am 16.9 12.3 6.5 50 5.1 SSW 20 41 11 22 1019.8 - 6.4
29/06:00am 16.6 11.2 8.1 57 4.3 SSW 26 50 14 27 1019.4 - 6.4
29/05:30am 16.2 10.1 6.8 53 4.6 SSW 28 46 15 25 1019.2 1019.2 6.2
29/05:20am 15.9 10.9 8.2 60 3.9 SSW 24 43 13 23 1018.9 - 6.2
29/05:02am 15.1 9.4 9.9 71 2.7 SSW 30 59 16 32 1019.0 - 6.0
29/05:00am 15.5 10.4 10.6 72 2.6 SSW 28 59 15 32 1018.9 - 5.8
29/04:30am 17.1 12.1 8.0 55 4.6 SSW 24 46 13 25 1018.0 - 5.6
29/04:00am 16.9 11.3 7.3 53 4.8 SW 26 54 14 29 1017.9 - 5.6
29/03:30am 16.6 11.6 8.1 57 4.3 SSW 24 50 13 27 1017.5 - 5.6
29/03:00am 16.7 10.3 8.5 58 4.2 SW 32 57 17 31 1017.4 - 5.6
29/02:50am 16.9 11.1 8.0 55 4.5 SSW 28 48 15 26 1017.2 - 5.6
29/02:32am 15.6 9.7 10.3 70 2.8 SSW 32 69 17 37 1017.3 - 5.6
29/02:30am 16.3 10.4 10.4 68 3.1 SW 32 69 17 37 1017.4 1017.4 5.2
29/02:00am 17.1 10.9 8.0 55 4.6 SW 30 54 16 29 1016.7 - 5.2
29/01:30am 17.1 10.4 8.3 56 4.5 SSW 33 69 18 37 1016.5 - 5.2
29/01:00am 17.2 10.5 8.2 55 4.6 SW 33 59 18 32 1016.6 - 5.2
29/12:30am 17.3 10.7 7.8 53 4.8 SW 32 63 17 34 1016.4 - 5.2
29/12:00am 17.1 10.6 9.0 59 4.2 SSW 33 57 18 31 1016.0 - 5.2
 
Date/Time
EST
Temp
°C
App
Temp
°C
Dew
Point
°C
Rel
Hum
%
Delta-T
°C
Wind Press
QNH
hPa
Press
MSL
hPa
Rain since
9am
mm
Dir  Spd
km/h
Gust
km/h
Spd
kts
Gust
kts
28/11:30pm 17.1 10.6 9.0 59 4.2 SSW 33 70 18 38 1015.8 1015.8 5.2
28/11:08pm 17.2 10.2 8.6 57 4.4 SSW 35 83 19 45 1015.3 - 5.2
28/11:00pm 17.2 10.6 8.4 56 4.5 SSW 33 65 18 35 1015.4 - 5.2
28/10:30pm 17.2 10.4 9.3 59 4.1 SSW 35 67 19 36 1015.2 - 5.2
28/10:00pm 16.8 10.9 10.4 66 3.4 SSW 32 65 17 35 1014.8 - 5.2
28/09:30pm 16.7 10.6 10.3 66 3.4 SSW 33 70 18 38 1014.3 - 5.2
28/09:00pm 16.7 10.9 11.5 71 2.8 SW 33 72 18 39 1013.8 - 5.2
28/08:30pm 17.2 10.9 9.8 61 3.9 SW 33 69 18 37 1013.6 1013.6 5.2
28/08:00pm 16.5 10.8 11.9 74 2.5 SSW 33 63 18 34 1013.4 - 5.2
28/07:45pm 16.3 10.7 11.5 73 2.6 SSW 32 69 17 37 1013.3 - 5.2
28/07:30pm 16.0 11.7 12.2 78 2.1 SSW 26 52 14 28 1012.7 - 5.2
28/07:26pm 15.5 11.1 12.8 84 1.5 SSW 28 52 15 28 1013.0 - 5.0
28/07:09pm 17.3 12.0 9.9 62 3.9 SSW 28 56 15 30 1012.6 - 3.2
28/07:00pm 17.2 11.8 9.6 61 4.0 SSW 28 44 15 24 1012.4 - 3.2
28/06:30pm 17.1 13.8 10.8 66 3.4 SSW 19 44 10 24 1011.8 - 3.0
28/06:00pm 17.1 13.2 10.8 66 3.4 SSW 22 35 12 19 1011.1 - 3.0
28/05:30pm 16.9 14.6 10.3 65 3.5 SSW 13 33 7 18 1010.4 1010.4 3.0
28/05:00pm 16.6 13.6 10.8 68 3.1 SSW 17 48 9 26 1009.9 - 3.0
28/04:30pm 16.2 12.9 10.8 70 2.9 SSW 19 30 10 16 1009.3 - 3.0
28/04:00pm 16.3 15.0 11.3 72 2.7 S 9 17 5 9 1008.7 - 3.0
28/03:30pm 16.7 14.9 12.2 75 2.5 SSW 13 22 7 12 1008.1 - 3.0
28/03:00pm 16.8 15.9 12.5 76 2.4 SSW 9 15 5 8 1007.5 - 3.0
28/02:30pm 16.5 14.8 12.5 77 2.2 SW 13 19 7 10 1007.3 1007.3 3.0
28/02:20pm 16.4 15.9 13.7 84 1.5 SSW 9 17 5 9 1007.3 - 3.0
28/02:00pm 15.8 13.1 12.9 83 1.6 SW 19 30 10 16 1007.3 - 0.4
28/01:30pm 17.4 14.1 12.9 75 2.5 W 22 33 12 18 1007.1 - 0.4
28/01:00pm 18.5 15.5 12.6 68 3.3 W 20 28 11 15 1007.2 - 0.4
28/12:30pm 18.8 16.1 12.8 68 3.4 WNW 19 28 10 15 1007.1 - 0.4
28/12:00pm 19.0 15.6 12.4 65 3.7 W 22 33 12 18 1007.7 - 0.4
28/11:30am 18.6 15.3 11.7 64 3.8 WNW 20 33 11 18 1008.0 1008.0 0.4
28/11:00am 18.3 15.6 11.8 66 3.6 WNW 17 32 9 17 1008.5 - 0.0
28/10:30am 19.0 15.9 11.5 61 4.1 WNW 19 32 10 17 1009.0 - 0.0
28/10:00am 18.7 15.3 10.5 59 4.4 W 19 28 10 15 1009.6 - 0.0
28/09:30am 18.1 13.0 9.3 56 4.6 W 26 41 14 22 1009.7 - 0.0
28/09:00am 17.6 12.5 10.7 64 3.7 W 28 39 15 21 1009.8 - 0.0
28/08:30am 17.1 11.6 11.8 71 2.9 W 32 39 17 21 1009.9 1009.9 18.0
28/08:00am 15.4 10.6 11.7 78 2.0 W 28 43 15 23 1010.2 - 18.0
28/07:30am 16.2 12.6 10.6 69 3.0 W 20 30 11 16 1010.0 - 18.0
28/07:00am 15.6 13.1 10.9 73 2.5 WNW 15 24 8 13 1010.1 - 17.8
28/06:30am 15.6 12.1 10.1 70 2.9 W 19 28 10 15 1009.9 - 17.8
28/06:08am 16.1 9.9 10.2 68 3.1 W 33 39 18 21 1009.8 - 17.8
28/06:00am 15.4 13.1 10.5 72 2.6 WNW 13 20 7 11 1009.8 - 17.8
28/05:30am 15.9 9.6 9.8 67 3.2 W 33 43 18 23 1009.5 1009.5 17.6
28/05:00am 16.6 11.3 11.4 71 2.8 WSW 30 43 16 23 1009.1 - 17.6
28/04:30am 17.0 11.0 10.0 63 3.7 W 32 37 17 20 1009.1 - 17.6
28/04:00am 16.3 11.0 11.1 71 2.8 WSW 30 35 16 19 1009.1 - 17.6
28/03:33am 16.6 10.7 12.4 76 2.3 WSW 35 54 19 29 1009.2 - 17.6
28/03:30am 17.0 11.3 11.3 69 3.1 WSW 32 39 17 21 1009.3 - 17.6
28/03:00am 16.8 10.3 10.4 66 3.4 WSW 35 44 19 24 1009.4 - 17.6
28/02:30am 17.1 11.4 11.0 67 3.3 W 32 43 17 23 1009.5 1009.5 17.6
28/02:01am 17.2 11.4 11.5 69 3.1 W 33 54 18 29 1009.5 - 17.6
28/02:00am 17.2 11.0 10.2 63 3.7 W 33 41 18 22 1009.5 - 17.6
28/01:30am 17.2 10.5 9.6 61 4.0 W 35 43 19 23 1009.6 - 17.6
28/01:00am 17.2 10.7 10.2 63 3.7 W 35 43 19 23 1009.8 - 17.6
28/12:30am 17.3 11.7 12.2 72 2.8 W 33 41 18 22 1009.9 - 17.6
28/12:00am 17.0 11.4 11.5 70 3.0 WSW 32 39 17 21 1010.0 - 17.6
 
Date/Time
EST
Temp
°C
App
Temp
°C
Dew
Point
°C
Rel
Hum
%
Delta-T
°C
Wind Press
QNH
hPa
Press
MSL
hPa
Rain since
9am
mm
Dir  Spd
km/h
Gust
km/h
Spd
kts
Gust
kts
27/11:30pm 17.0 11.4 11.5 70 3.0 WSW 32 39 17 21 1010.2 1010.2 17.6
27/11:00pm 16.9 11.6 11.4 70 3.0 WSW 30 37 16 20 1010.0 - 17.6
27/10:30pm 16.9 12.3 12.2 74 2.6 WSW 28 37 15 20 1010.1 - 17.6
27/10:00pm 16.7 11.0 11.9 73 2.6 WSW 33 44 18 24 1010.1 - 17.6

Other Formats:

Comma delimited format used in spreadsheet applications
http://www.bom.gov.au/fwo/IDN60801/IDN60801.94995.axf

JavaScript Object Notation format (JSON) in row-major order
http://www.bom.gov.au/fwo/IDN60801/IDN60801.94995.json